createdAt,value
2023-12-29T00:02:17.722Z,1.02
2023-12-29T00:04:44.810Z,1.10
2023-12-29T00:07:12.064Z,0.90
2023-12-29T00:09:42.648Z,0.93
2023-12-29T00:12:10.124Z,0.70
2023-12-29T00:14:41.342Z,0.73
2023-12-29T00:17:08.508Z,0.85
2023-12-29T00:19:35.857Z,0.90
2023-12-29T00:22:04.592Z,0.80
2023-12-29T00:24:34.954Z,0.75
2023-12-29T00:27:03.235Z,0.90
2023-12-29T00:29:34.569Z,1.00
2023-12-29T00:32:04.183Z,0.70
2023-12-29T00:34:32.094Z,0.77
2023-12-29T00:36:59.284Z,0.90
2023-12-29T00:39:30.024Z,1.15
2023-12-29T00:41:58.358Z,0.63
2023-12-29T00:44:25.411Z,0.85
2023-12-29T00:46:52.641Z,0.68
2023-12-29T00:49:19.834Z,0.60
2023-12-29T00:51:49.500Z,1.42
2023-12-29T00:54:17.100Z,1.10
2023-12-29T00:56:53.015Z,0.80
2023-12-29T01:01:47.804Z,0.90
2023-12-29T01:04:15.245Z,1.35
2023-12-29T01:06:42.434Z,1.20
2023-12-29T01:09:10.925Z,0.98
2023-12-29T01:11:37.853Z,1.38
2023-12-29T01:14:04.879Z,0.95
2023-12-29T01:16:32.046Z,1.10
2023-12-29T01:18:59.141Z,1.60
2023-12-29T01:21:26.312Z,1.17
2023-12-29T01:23:53.319Z,1.55
2023-12-29T01:26:20.327Z,1.60
2023-12-29T01:28:47.264Z,2.67
2023-12-29T01:31:14.951Z,1.73
2023-12-29T01:33:42.081Z,2.42
2023-12-29T01:36:15.125Z,2.15
2023-12-29T01:41:11.798Z,2.35
2023-12-29T01:43:58.844Z,3.22
2023-12-29T01:46:28.372Z,3.35
2023-12-29T01:48:56.282Z,3.90
2023-12-29T01:51:26.595Z,4.47
2023-12-29T01:53:55.385Z,3.85
2023-12-29T01:56:22.765Z,2.95
2023-12-29T01:58:50.987Z,2.72
2023-12-29T02:01:20.101Z,3.47
2023-12-29T02:03:47.689Z,3.58
2023-12-29T02:06:17.312Z,2.83
2023-12-29T02:08:44.431Z,2.70
2023-12-29T02:11:12.098Z,3.08
2023-12-29T02:13:39.264Z,2.15
2023-12-29T02:16:16.761Z,2.15
2023-12-29T02:18:47.086Z,2.10
2023-12-29T02:21:14.553Z,2.10
2023-12-29T02:23:41.596Z,2.10
2023-12-29T02:26:11.652Z,1.95
2023-12-29T02:28:43.959Z,1.70
2023-12-29T02:31:21.843Z,1.60
2023-12-29T02:33:50.423Z,1.83
2023-12-29T02:36:18.182Z,2.00
2023-12-29T02:38:45.505Z,1.98
2023-12-29T02:41:14.471Z,1.30
2023-12-29T02:43:41.634Z,1.58
2023-12-29T02:46:08.752Z,2.15
2023-12-29T02:48:36.034Z,1.98
2023-12-29T02:51:03.318Z,1.55
2023-12-29T02:53:30.400Z,1.65
2023-12-29T02:55:58.050Z,2.03
2023-12-29T02:58:25.159Z,2.17
2023-12-29T03:00:52.365Z,1.92
2023-12-29T03:03:19.609Z,1.35
2023-12-29T03:05:46.754Z,1.40
2023-12-29T03:08:13.906Z,2.22
2023-12-29T03:10:40.820Z,1.90
2023-12-29T03:13:08.017Z,1.52
2023-12-29T03:15:35.974Z,1.30
2023-12-29T03:18:03.938Z,1.20
2023-12-29T03:20:31.269Z,1.40
2023-12-29T03:22:58.716Z,1.20
2023-12-29T03:25:25.692Z,1.52
2023-12-29T03:27:52.764Z,1.73
2023-12-29T03:30:19.767Z,1.13
2023-12-29T03:32:46.803Z,1.10
2023-12-29T03:35:14.027Z,1.10
2023-12-29T03:37:41.169Z,1.02
2023-12-29T03:40:08.974Z,1.45
2023-12-29T03:42:36.505Z,1.20
2023-12-29T03:45:03.735Z,2.00
2023-12-29T03:47:32.939Z,1.10
2023-12-29T03:50:00.058Z,1.08
2023-12-29T03:52:27.166Z,1.10
2023-12-29T03:54:54.205Z,1.05
2023-12-29T03:57:21.417Z,0.93
2023-12-29T03:59:48.378Z,0.77
2023-12-29T04:02:15.417Z,0.80
2023-12-29T04:04:42.823Z,1.98
2023-12-29T04:07:10.164Z,1.30
2023-12-29T04:09:37.205Z,0.85
2023-12-29T04:12:04.500Z,1.17
2023-12-29T04:14:31.440Z,1.40
2023-12-29T04:16:58.604Z,1.52
2023-12-29T04:19:25.676Z,1.63
2023-12-29T04:21:53.344Z,1.70
2023-12-29T04:24:20.347Z,2.65
2023-12-29T04:26:47.526Z,2.80
2023-12-29T04:29:14.490Z,1.80
2023-12-29T04:31:42.649Z,1.88
2023-12-29T04:34:09.723Z,2.35
2023-12-29T04:36:36.773Z,2.55
2023-12-29T04:39:03.847Z,2.50
2023-12-29T04:41:31.142Z,2.80
2023-12-29T04:43:58.521Z,2.53
2023-12-29T04:46:25.448Z,2.13
2023-12-29T04:48:52.641Z,2.45
2023-12-29T04:51:19.702Z,1.95
2023-12-29T04:53:46.596Z,2.83
2023-12-29T04:56:13.638Z,2.25
2023-12-29T04:58:40.590Z,1.88
2023-12-29T05:01:09.641Z,2.10
2023-12-29T05:03:36.864Z,2.20
2023-12-29T05:06:04.265Z,1.40
2023-12-29T05:08:31.250Z,2.08
2023-12-29T05:10:58.414Z,1.95
2023-12-29T05:13:25.366Z,1.63
2023-12-29T05:15:52.348Z,1.73
2023-12-29T05:18:19.537Z,2.58
2023-12-29T05:20:46.490Z,1.67
2023-12-29T05:23:13.739Z,2.30
2023-12-29T05:25:40.877Z,1.85
2023-12-29T05:28:07.945Z,1.55
2023-12-29T05:30:35.057Z,1.30
2023-12-29T05:33:02.341Z,1.58
2023-12-29T05:35:29.342Z,1.58
2023-12-29T05:37:56.495Z,2.20
2023-12-29T05:40:23.642Z,1.10
2023-12-29T05:42:50.757Z,1.20
2023-12-29T05:45:18.816Z,1.85
2023-12-29T05:47:46.004Z,1.17
2023-12-29T05:50:13.112Z,1.27
2023-12-29T05:52:40.341Z,1.48
2023-12-29T05:55:07.799Z,1.40
2023-12-29T05:57:34.836Z,1.05
2023-12-29T06:00:01.946Z,1.20
2023-12-29T06:02:30.050Z,1.13
2023-12-29T06:04:57.368Z,1.05
2023-12-29T06:07:24.514Z,1.45
2023-12-29T06:09:51.701Z,1.00
2023-12-29T06:12:18.667Z,1.20
2023-12-29T06:14:45.699Z,1.02
2023-12-29T06:17:12.834Z,1.42
2023-12-29T06:19:40.820Z,1.17
2023-12-29T06:22:12.674Z,1.58
2023-12-29T06:24:39.845Z,1.08
2023-12-29T06:27:11.050Z,1.60
2023-12-29T06:29:38.197Z,1.42
2023-12-29T06:32:05.839Z,0.98
2023-12-29T06:34:32.963Z,1.45
2023-12-29T06:36:59.998Z,1.33
2023-12-29T06:39:27.136Z,1.10
2023-12-29T06:41:54.147Z,1.08
2023-12-29T06:44:21.134Z,2.22
2023-12-29T06:46:48.365Z,2.10
2023-12-29T06:49:15.580Z,1.40
2023-12-29T06:51:42.848Z,2.00
2023-12-29T06:54:10.183Z,1.83
2023-12-29T06:56:37.187Z,1.48
2023-12-29T06:59:04.422Z,1.20
2023-12-29T07:01:31.666Z,1.00
2023-12-29T07:03:58.711Z,1.00
2023-12-29T07:06:25.768Z,1.52
2023-12-29T07:08:52.997Z,1.00
2023-12-29T07:11:19.977Z,1.02
2023-12-29T07:13:46.976Z,0.85
2023-12-29T07:16:14.122Z,0.70
2023-12-29T07:18:41.334Z,0.82
2023-12-29T07:21:08.528Z,0.80
2023-12-29T07:23:35.737Z,0.90
2023-12-29T07:26:02.737Z,1.27
2023-12-29T07:28:29.910Z,1.23
2023-12-29T07:30:57.033Z,0.77
2023-12-29T07:33:25.284Z,0.80
2023-12-29T07:35:52.480Z,1.48
2023-12-29T07:38:19.607Z,0.95
2023-12-29T07:40:48.876Z,1.08
2023-12-29T07:43:15.932Z,2.25
2023-12-29T07:45:44.619Z,1.05
2023-12-29T07:48:12.566Z,1.17
2023-12-29T07:50:39.667Z,1.60
2023-12-29T07:53:07.601Z,1.33
2023-12-29T07:55:40.594Z,1.23
2023-12-29T07:58:07.810Z,0.68
2023-12-29T08:00:34.954Z,1.00
2023-12-29T08:03:02.075Z,1.40
2023-12-29T08:05:29.415Z,0.93
2023-12-29T08:07:56.458Z,0.80
2023-12-29T08:10:23.646Z,1.67
2023-12-29T08:12:50.923Z,0.90
2023-12-29T08:15:18.474Z,0.90
2023-12-29T08:17:45.530Z,0.88
2023-12-29T08:20:12.766Z,1.60
2023-12-29T08:22:39.747Z,1.35
2023-12-29T08:25:07.125Z,1.10
2023-12-29T08:27:34.595Z,1.10
2023-12-29T08:30:01.550Z,1.95
2023-12-29T08:32:28.563Z,1.13
2023-12-29T08:34:55.715Z,1.45
2023-12-29T08:37:22.755Z,0.82
2023-12-29T08:39:50.148Z,1.63
2023-12-29T08:42:17.558Z,1.23
2023-12-29T08:44:44.814Z,1.60
2023-12-29T08:47:11.971Z,1.25
2023-12-29T08:49:39.787Z,1.10
2023-12-29T08:52:06.975Z,1.25
2023-12-29T08:54:34.418Z,1.30
2023-12-29T08:57:01.683Z,1.10
2023-12-29T08:59:28.742Z,1.15
2023-12-29T09:01:56.085Z,0.98
2023-12-29T09:04:25.396Z,1.38
2023-12-29T09:06:52.551Z,1.00
2023-12-29T09:09:19.853Z,1.23
2023-12-29T09:11:48.544Z,1.23
2023-12-29T09:14:15.519Z,1.50
2023-12-29T09:16:44.817Z,1.17
2023-12-29T09:21:42.233Z,1.20
2023-12-29T09:24:09.260Z,1.00
2023-12-29T09:26:36.529Z,1.17
2023-12-29T09:29:03.578Z,1.17
2023-12-29T09:31:30.737Z,1.38
2023-12-29T09:33:58.477Z,1.35
2023-12-29T09:36:25.661Z,1.45
2023-12-29T09:38:52.900Z,1.20
2023-12-29T09:41:22.173Z,1.98
2023-12-29T09:43:53.704Z,1.65
2023-12-29T09:46:23.160Z,2.65
2023-12-29T09:48:53.994Z,1.67
2023-12-29T09:51:24.479Z,1.55
2023-12-29T09:53:53.250Z,1.42
2023-12-29T09:56:20.870Z,1.45
2023-12-29T09:58:53.620Z,1.30
2023-12-29T10:01:25.918Z,1.40
2023-12-29T10:03:53.226Z,1.58
2023-12-29T10:06:26.127Z,1.75
2023-12-29T10:08:54.583Z,1.60
2023-12-29T10:11:27.765Z,1.40
2023-12-29T10:13:57.004Z,2.13
2023-12-29T10:16:36.698Z,2.17
2023-12-29T10:19:09.779Z,1.63
2023-12-29T10:21:47.482Z,2.10
2023-12-29T10:24:19.560Z,1.83
2023-12-29T10:26:47.111Z,2.25
2023-12-29T10:29:16.583Z,1.55
2023-12-29T10:31:44.273Z,2.30
2023-12-29T10:34:30.732Z,2.42
2023-12-29T10:36:59.088Z,1.85
2023-12-29T10:39:26.776Z,1.80
2023-12-29T10:42:08.934Z,1.75
2023-12-29T10:44:36.814Z,2.08
2023-12-29T10:47:13.549Z,1.60
2023-12-29T10:49:42.313Z,3.00
2023-12-29T10:52:16.961Z,2.30
2023-12-29T10:54:44.932Z,2.20
2023-12-29T10:57:14.017Z,2.20
2023-12-29T10:59:42.032Z,2.10
2023-12-29T11:02:16.792Z,2.10
2023-12-29T11:04:44.373Z,2.33
2023-12-29T11:07:14.425Z,2.50
2023-12-29T11:09:42.769Z,1.88
2023-12-29T11:12:11.470Z,2.75
2023-12-29T11:14:38.713Z,3.00
2023-12-29T11:17:07.372Z,2.30
2023-12-29T11:19:34.838Z,4.20
2023-12-29T11:22:04.010Z,2.08
2023-12-29T11:24:38.180Z,3.08
2023-12-29T11:27:09.009Z,2.17
2023-12-29T11:29:37.790Z,2.90
2023-12-29T11:32:08.149Z,2.40
2023-12-29T11:34:44.912Z,2.45
2023-12-29T11:37:18.341Z,2.92
2023-12-29T11:39:59.216Z,2.80
2023-12-29T11:42:34.436Z,2.85
2023-12-29T11:45:33.405Z,2.30
2023-12-29T11:48:03.914Z,1.98
2023-12-29T11:50:42.032Z,2.40
2023-12-29T11:53:12.041Z,2.30
2023-12-29T11:55:40.687Z,2.95
2023-12-29T11:58:30.006Z,2.40
2023-12-29T12:00:58.380Z,2.92
2023-12-29T12:03:33.229Z,2.53
2023-12-29T12:06:05.294Z,2.77
2023-12-29T12:08:36.705Z,2.30
2023-12-29T12:11:35.414Z,2.30
2023-12-29T12:14:03.279Z,3.08
2023-12-29T12:16:50.620Z,2.58
2023-12-29T12:19:19.666Z,2.08
2023-12-29T12:21:51.298Z,2.30
2023-12-29T12:24:21.489Z,3.33
2023-12-29T12:26:48.504Z,2.72
2023-12-29T12:29:16.036Z,3.35
2023-12-29T12:31:58.540Z,2.35
2023-12-29T12:34:26.635Z,3.45
2023-12-29T12:36:58.029Z,4.25
2023-12-29T12:39:25.811Z,2.20
2023-12-29T12:41:52.834Z,2.72
2023-12-29T12:44:20.985Z,2.60
2023-12-29T12:46:58.328Z,3.33
2023-12-29T12:49:25.813Z,2.78
2023-12-29T12:51:55.027Z,2.40
2023-12-29T12:54:22.365Z,3.25
2023-12-29T12:56:50.280Z,2.88
2023-12-29T12:59:17.825Z,2.40
2023-12-29T13:01:45.164Z,2.45
2023-12-29T13:04:13.595Z,3.15
2023-12-29T13:06:49.291Z,2.78
2023-12-29T13:09:20.887Z,2.58
2023-12-29T13:11:48.332Z,2.45
2023-12-29T13:14:23.539Z,2.95
2023-12-29T13:16:51.797Z,2.45
2023-12-29T13:19:24.096Z,2.60
2023-12-29T13:21:55.229Z,2.17
2023-12-29T13:24:23.228Z,2.60
2023-12-29T13:26:56.465Z,3.13
2023-12-29T13:29:30.367Z,3.20
2023-12-29T13:32:02.198Z,3.53
2023-12-29T13:34:46.920Z,3.42
2023-12-29T13:37:24.369Z,1.90
2023-12-29T13:40:23.389Z,2.35
2023-12-29T13:42:55.610Z,3.38
2023-12-29T13:45:23.186Z,2.30
2023-12-29T13:47:50.493Z,2.13
2023-12-29T13:50:17.756Z,3.38
2023-12-29T13:52:44.923Z,3.58
2023-12-29T13:55:12.458Z,2.85
2023-12-29T13:57:39.886Z,2.70
2023-12-29T14:00:25.668Z,2.65
2023-12-29T14:02:58.725Z,2.05
2023-12-29T14:05:32.892Z,1.65
2023-12-29T14:08:11.655Z,3.42
2023-12-29T14:10:38.918Z,2.95
2023-12-29T14:13:16.143Z,2.63
2023-12-29T14:15:44.708Z,3.10
2023-12-29T14:18:30.781Z,2.83
2023-12-29T14:23:28.205Z,2.03
2023-12-29T14:26:04.136Z,3.50
2023-12-29T14:28:31.515Z,1.73
2023-12-29T14:31:04.822Z,2.80
2023-12-29T14:33:32.012Z,3.80
2023-12-29T14:35:59.204Z,4.28
2023-12-29T14:38:26.675Z,3.20
2023-12-29T14:40:53.776Z,2.50
2023-12-29T14:43:20.708Z,2.75
2023-12-29T14:45:47.711Z,2.72
2023-12-29T14:48:14.978Z,3.33
2023-12-29T14:50:46.583Z,3.17
2023-12-29T14:53:14.071Z,2.30
2023-12-29T14:55:41.351Z,2.25
2023-12-29T14:58:08.347Z,3.58
2023-12-29T15:00:35.377Z,2.78
2023-12-29T15:03:02.548Z,3.30
2023-12-29T15:05:29.695Z,1.98
2023-12-29T15:07:56.676Z,2.72
2023-12-29T15:10:23.795Z,2.55
2023-12-29T15:12:50.767Z,2.53
2023-12-29T15:15:17.842Z,3.08
2023-12-29T15:17:45.423Z,2.63
2023-12-29T15:20:12.753Z,2.38
2023-12-29T15:22:39.686Z,2.60
2023-12-29T15:25:07.475Z,2.55
2023-12-29T15:27:34.567Z,2.38
2023-12-29T15:30:01.651Z,2.28
2023-12-29T15:32:28.775Z,1.80
2023-12-29T15:34:58.070Z,2.85
2023-12-29T15:37:25.230Z,2.08
2023-12-29T15:39:52.360Z,2.13
2023-12-29T15:42:19.340Z,2.30
2023-12-29T15:44:46.596Z,3.35
2023-12-29T15:47:13.594Z,3.10
2023-12-29T15:49:40.645Z,1.70
2023-12-29T15:52:07.767Z,2.03
2023-12-29T15:54:34.974Z,2.67
2023-12-29T15:57:07.252Z,2.03
2023-12-29T15:59:37.058Z,2.33
2023-12-29T16:02:05.001Z,2.60
2023-12-29T16:04:32.072Z,2.00
2023-12-29T16:06:59.235Z,2.35
2023-12-29T16:09:26.473Z,1.83
2023-12-29T16:11:57.583Z,2.35
2023-12-29T16:14:24.602Z,1.85
2023-12-29T16:16:51.727Z,2.42
2023-12-29T16:19:19.203Z,2.03
2023-12-29T16:21:46.566Z,1.90
2023-12-29T16:24:23.711Z,2.47
2023-12-29T16:26:51.809Z,2.08
2023-12-29T16:29:19.833Z,2.28
2023-12-29T16:31:46.957Z,1.90
2023-12-29T16:34:14.274Z,1.85
2023-12-29T16:36:41.517Z,1.63
2023-12-29T16:39:08.898Z,1.90
2023-12-29T16:41:35.877Z,2.65
2023-12-29T16:44:03.181Z,1.58
2023-12-29T16:46:30.229Z,2.05
2023-12-29T16:48:57.575Z,1.27
2023-12-29T16:51:24.700Z,1.80
2023-12-29T16:53:51.672Z,2.72
2023-12-29T16:56:18.696Z,1.60
2023-12-29T16:58:45.724Z,2.45
2023-12-29T17:01:13.250Z,2.70
2023-12-29T17:03:40.343Z,1.92
2023-12-29T17:06:07.640Z,2.30
2023-12-29T17:08:36.893Z,2.25
2023-12-29T17:11:05.316Z,1.55
2023-12-29T17:13:35.210Z,1.67
2023-12-29T17:16:05.010Z,2.28
2023-12-29T17:18:32.572Z,1.88
2023-12-29T17:20:59.924Z,2.65
2023-12-29T17:23:27.024Z,2.53
2023-12-29T17:25:58.718Z,2.78
2023-12-29T17:28:26.658Z,2.22
2023-12-29T17:30:53.879Z,2.50
2023-12-29T17:33:20.936Z,1.70
2023-12-29T17:35:47.982Z,2.35
2023-12-29T17:38:14.975Z,2.55
2023-12-29T17:40:42.027Z,2.30
2023-12-29T17:43:09.183Z,3.10
2023-12-29T17:45:36.251Z,2.00
2023-12-29T17:48:03.297Z,2.10
2023-12-29T17:50:30.452Z,2.15
2023-12-29T17:52:58.017Z,2.67
2023-12-29T17:55:25.108Z,2.55
2023-12-29T17:57:52.392Z,1.90
2023-12-29T18:00:19.567Z,1.27
2023-12-29T18:02:46.500Z,2.55
2023-12-29T18:05:13.640Z,2.63
2023-12-29T18:07:40.728Z,1.95
2023-12-29T18:10:10.018Z,1.85
2023-12-29T18:12:37.417Z,1.75
2023-12-29T18:15:04.736Z,2.08
2023-12-29T18:17:35.206Z,2.05
2023-12-29T18:20:02.580Z,2.70
2023-12-29T18:22:30.388Z,1.60
2023-12-29T18:24:57.977Z,1.83
2023-12-29T18:27:25.001Z,2.05
2023-12-29T18:29:52.049Z,2.30
2023-12-29T18:32:22.087Z,2.70
2023-12-29T18:34:51.406Z,2.97
2023-12-29T18:37:19.764Z,2.10
2023-12-29T18:39:48.295Z,2.92
2023-12-29T18:42:15.688Z,3.30
2023-12-29T18:44:42.728Z,2.50
2023-12-29T18:47:10.798Z,1.77
2023-12-29T18:49:38.340Z,3.00
2023-12-29T18:52:05.862Z,2.30
2023-12-29T18:54:35.733Z,1.90
2023-12-29T18:57:03.744Z,2.47
2023-12-29T18:59:31.039Z,2.22
2023-12-29T19:02:01.000Z,2.38
2023-12-29T19:04:28.555Z,2.38
2023-12-29T19:06:55.893Z,1.70
2023-12-29T19:09:22.974Z,2.95
2023-12-29T19:11:51.338Z,2.95
2023-12-29T19:14:18.585Z,3.33
2023-12-29T19:16:45.669Z,3.03
2023-12-29T19:19:12.837Z,2.88
2023-12-29T19:21:43.790Z,2.60
2023-12-29T19:24:11.757Z,2.53
2023-12-29T19:26:39.608Z,2.80
2023-12-29T19:29:06.683Z,2.58
2023-12-29T19:31:34.258Z,2.08
2023-12-29T19:34:01.442Z,2.60
2023-12-29T19:36:28.616Z,1.80
2023-12-29T19:38:55.740Z,1.73
2023-12-29T19:41:24.695Z,1.58
2023-12-29T19:43:52.664Z,2.35
2023-12-29T19:46:21.151Z,2.05
2023-12-29T19:48:51.721Z,3.42
2023-12-29T19:51:20.821Z,2.55
2023-12-29T19:53:48.580Z,1.35
2023-12-29T19:56:30.091Z,1.98
2023-12-29T19:58:57.783Z,2.88
2023-12-29T20:01:26.866Z,2.70
2023-12-29T20:03:54.112Z,3.17
2023-12-29T20:06:23.831Z,2.58
2023-12-29T20:08:52.630Z,3.17
2023-12-29T20:11:20.793Z,3.40
2023-12-29T20:13:48.201Z,2.60
2023-12-29T20:16:24.155Z,2.53
2023-12-29T20:18:54.182Z,2.60
2023-12-29T20:21:25.886Z,2.20
2023-12-29T20:23:53.648Z,3.60
2023-12-29T20:26:25.516Z,4.43
2023-12-29T20:28:54.997Z,3.90
2023-12-29T20:31:32.562Z,4.20
2023-12-29T20:34:00.347Z,4.15
2023-12-29T20:36:28.414Z,4.13
2023-12-29T20:38:56.074Z,3.53
2023-12-29T20:41:25.014Z,3.20
2023-12-29T20:43:52.951Z,2.95
2023-12-29T20:46:23.488Z,3.08
2023-12-29T20:48:52.536Z,2.60
2023-12-29T20:51:20.544Z,2.20
2023-12-29T20:53:52.550Z,1.65
2023-12-29T20:56:20.517Z,1.67
2023-12-29T20:58:51.909Z,2.15
2023-12-29T21:01:21.937Z,1.88
2023-12-29T21:03:49.269Z,2.10
2023-12-29T21:06:20.530Z,1.65
2023-12-29T21:08:48.180Z,1.90
2023-12-29T21:11:20.584Z,1.67
2023-12-29T21:13:47.931Z,1.40
2023-12-29T21:16:19.794Z,1.00
2023-12-29T21:18:47.667Z,1.30
2023-12-29T21:21:15.188Z,1.30
2023-12-29T21:23:43.850Z,1.75
2023-12-29T21:26:22.196Z,1.55
2023-12-29T21:28:49.788Z,0.98
2023-12-29T21:31:18.526Z,1.83
2023-12-29T21:33:46.090Z,1.33
2023-12-29T21:36:26.918Z,1.20
2023-12-29T21:38:54.800Z,1.20
2023-12-29T21:41:22.423Z,1.90
2023-12-29T21:43:50.030Z,1.50
2023-12-29T21:46:17.203Z,1.42
2023-12-29T21:48:44.509Z,1.17
2023-12-29T21:51:12.043Z,1.90
2023-12-29T21:53:39.028Z,6.93
2023-12-29T21:56:06.173Z,10.98
2023-12-29T21:58:35.978Z,8.95
2023-12-29T22:01:38.870Z,9.32
2023-12-29T22:04:09.160Z,6.18
2023-12-29T22:06:39.027Z,3.53
2023-12-29T22:09:06.358Z,1.48
2023-12-29T22:11:33.404Z,1.40
2023-12-29T22:14:01.511Z,1.30
2023-12-29T22:16:28.970Z,0.93
2023-12-29T22:18:56.607Z,1.13
2023-12-29T22:21:23.684Z,1.55
2023-12-29T22:23:50.941Z,1.17
2023-12-29T22:26:19.679Z,1.55
2023-12-29T22:28:50.082Z,1.25
2023-12-29T22:31:18.597Z,1.27
2023-12-29T22:33:46.532Z,1.45
2023-12-29T22:36:15.585Z,1.50
2023-12-29T22:38:43.126Z,1.45
2023-12-29T22:41:12.929Z,1.45
2023-12-29T22:43:40.062Z,2.90
2023-12-29T22:46:07.684Z,2.80
2023-12-29T22:48:34.790Z,2.17
2023-12-29T22:51:01.911Z,2.53
2023-12-29T22:53:29.335Z,2.25
2023-12-29T22:55:56.709Z,3.00
2023-12-29T22:58:24.561Z,2.15
2023-12-29T23:00:52.062Z,2.13
2023-12-29T23:03:20.546Z,2.38
2023-12-29T23:05:48.176Z,1.90
2023-12-29T23:08:16.218Z,2.03
2023-12-29T23:10:43.885Z,1.58
2023-12-29T23:13:12.237Z,1.75
2023-12-29T23:15:39.626Z,1.63
2023-12-29T23:18:07.733Z,1.63
2023-12-29T23:20:34.981Z,2.10
2023-12-29T23:23:02.254Z,1.40
2023-12-29T23:25:29.709Z,2.33
2023-12-29T23:27:57.006Z,1.25
2023-12-29T23:30:25.675Z,1.42
2023-12-29T23:32:53.156Z,1.08
2023-12-29T23:35:24.502Z,1.70
2023-12-29T23:37:52.749Z,1.65
2023-12-29T23:40:19.976Z,2.20
2023-12-29T23:42:47.887Z,1.52
2023-12-29T23:45:15.114Z,1.38
2023-12-29T23:47:42.411Z,1.80
2023-12-29T23:50:10.187Z,1.02
2023-12-29T23:52:37.555Z,1.27
2023-12-29T23:55:05.003Z,1.00
2023-12-29T23:57:32.068Z,1.00
2023-12-29T23:59:59.051Z,1.10
